Stampede Pass, Washington
Current Conditions -  °F | °C
As of 7:53 PM on Friday 24 Oct 2014 (Local Time) from KELN Reporting Station
Light Rain Light Rain  
Wind Chill: 48°   Ceiling: 4900
Heat Index: 48°   Visibility: 5mi
Dew Point: 43°   Wind: 3mph
Humidity: 83%   Direction: 240°WSW
Pressure: 29.97"   Gusts: NA
Location:  47.28°N, 121.33°W
Report Text: KELN 250253Z AUTO 24003KT 5SM -RA FEW007 SCT041 OVC049 09/06 A2997 RMK AO2 SLP157 P0004 60008 T00890061 55006
Loading
Personal Weather Stations






























Interactive Weather Map
Tropical Storm Tracking
New forecast layout! Learn more

10-Day Weather Forecast

Advertisements
Track Severe Weather on mobile